Time;durP1;ratioP1;P1;durP2;ratioP2;P2;SDS_P1;SDS_P2;PMS_P1;PMS_P2;Temp;Humidity;BMP_temperature;BMP_pressure;BME280_temperature;BME280_humidity;BME280_pressure;Samples;Min_cycle;Max_cycle;Signal;HPM_P1;HPM_P2
2024/04/03 00:00:43;;;;;;;3.60;0.95;;;9.90;99.90;;;;;;4995821;28;20139;-75
2024/04/03 00:03:09;;;;;;;2.58;1.23;;;9.60;99.90;;;;;;4994679;28;20691;-75
2024/04/03 00:05:35;;;;;;;2.72;1.30;;;9.60;99.90;;;;;;4995974;28;20042;-75
2024/04/03 00:08:01;;;;;;;3.45;1.63;;;9.60;99.90;;;;;;4994690;28;20439;-75
2024/04/03 00:10:26;;;;;;;1.85;0.90;;;9.50;99.90;;;;;;4995719;28;20063;-75
2024/04/03 00:12:52;;;;;;;3.30;1.15;;;9.50;99.90;;;;;;4995793;28;20022;-75
2024/04/03 00:15:18;;;;;;;3.10;1.20;;;9.40;99.90;;;;;;4994932;28;20030;-75
2024/04/03 00:17:43;;;;;;;8.05;1.42;;;9.10;99.90;;;;;;4995299;28;20040;-75
2024/04/03 00:20:09;;;;;;;2.45;1.00;;;9.10;99.90;;;;;;4996265;28;20042;-75
2024/04/03 00:22:35;;;;;;;6.30;1.40;;;9.00;99.90;;;;;;4994671;28;20034;-75
2024/04/03 00:25:01;;;;;;;4.70;1.30;;;9.00;99.90;;;;;;4995735;28;20092;-75
2024/04/03 00:27:27;;;;;;;2.25;1.10;;;8.80;99.90;;;;;;4995611;28;20212;-75
2024/04/03 00:29:53;;;;;;;2.22;0.93;;;8.90;99.90;;;;;;4995639;28;20061;-75
2024/04/03 00:32:19;;;;;;;4.82;1.10;;;9.10;99.90;;;;;;4999226;28;20151;-76
2024/04/03 00:34:45;;;;;;;5.32;1.30;;;9.00;99.90;;;;;;4999371;28;20053;-76
2024/04/03 00:37:11;;;;;;;3.00;1.02;;;9.00;99.90;;;;;;4995887;28;20181;-75
2024/04/03 00:39:37;;;;;;;5.20;1.33;;;9.00;99.90;;;;;;4997495;28;20046;-76
2024/04/03 00:42:03;;;;;;;2.35;1.00;;;9.00;99.90;;;;;;4999323;28;20042;-75
2024/04/03 00:44:29;;;;;;;2.22;0.98;;;9.10;99.90;;;;;;4998421;28;20125;-76
2024/04/03 00:46:55;;;;;;;3.00;1.35;;;8.90;99.90;;;;;;4998062;28;20034;-75
2024/04/03 00:49:21;;;;;;;2.22;1.13;;;8.90;99.90;;;;;;4998792;28;20124;-75
2024/04/03 00:51:48;;;;;;;3.25;1.10;;;9.00;99.90;;;;;;4999621;28;20037;-76
2024/04/03 00:54:15;;;;;;;3.25;1.05;;;9.00;99.90;;;;;;4997181;28;20374;-76
2024/04/03 00:56:41;;;;;;;5.93;1.40;;;8.70;99.90;;;;;;4999908;28;20044;-76
2024/04/03 00:59:07;;;;;;;3.75;1.20;;;8.40;99.90;;;;;;4999135;28;20037;-76
2024/04/03 01:01:33;;;;;;;3.15;1.30;;;8.30;99.90;;;;;;4998623;28;20046;-76
2024/04/03 01:03:59;;;;;;;6.82;1.73;;;8.30;99.90;;;;;;5000058;28;20057;-75
2024/04/03 01:06:24;;;;;;;3.75;1.40;;;8.10;99.90;;;;;;4998722;28;20125;-76
2024/04/03 01:08:50;;;;;;;4.72;1.52;;;8.00;99.90;;;;;;4997484;28;20168;-76
2024/04/03 01:11:17;;;;;;;6.10;1.85;;;8.10;99.90;;;;;;4999730;28;20034;-76
2024/04/03 01:13:43;;;;;;;3.75;1.50;;;8.10;99.90;;;;;;4997989;28;20022;-76
2024/04/03 01:16:09;;;;;;;8.60;1.55;;;8.30;99.90;;;;;;4998583;28;20116;-76
2024/04/03 01:18:36;;;;;;;3.20;1.45;;;8.30;99.90;;;;;;4999774;28;20091;-76
2024/04/03 01:21:02;;;;;;;3.95;1.42;;;8.40;99.90;;;;;;4998636;28;20562;-76
2024/04/03 01:23:27;;;;;;;4.38;1.10;;;8.40;99.90;;;;;;4998346;28;20041;-76
2024/04/03 01:25:53;;;;;;;7.03;1.52;;;8.60;99.90;;;;;;4999315;28;20034;-76
2024/04/03 01:28:20;;;;;;;3.47;1.33;;;8.70;99.90;;;;;;4998160;28;20267;-76
2024/04/03 01:30:46;;;;;;;5.18;1.40;;;8.50;99.90;;;;;;4998139;28;20495;-76
2024/04/03 01:33:12;;;;;;;3.17;1.35;;;8.20;99.90;;;;;;4998215;28;20096;-76
2024/04/03 01:35:37;;;;;;;5.60;1.35;;;8.00;99.90;;;;;;4998330;28;20037;-76
2024/04/03 01:38:03;;;;;;;3.10;1.25;;;8.10;99.90;;;;;;4997858;28;20050;-76
2024/04/03 01:40:29;;;;;;;4.18;1.58;;;8.10;99.90;;;;;;4998779;28;20030;-76
2024/04/03 01:42:55;;;;;;;2.35;1.20;;;8.10;99.90;;;;;;4996847;28;20030;-76
2024/04/03 01:45:20;;;;;;;4.82;1.52;;;8.20;99.90;;;;;;4998086;28;20471;-76
2024/04/03 01:47:47;;;;;;;2.85;1.27;;;8.20;99.90;;;;;;4999188;28;20061;-76
2024/04/03 01:50:18;;;;;;;4.68;1.67;;;8.20;99.90;;;;;;4998622;28;20036;-76
2024/04/03 01:52:44;;;;;;;4.25;1.52;;;8.20;99.90;;;;;;4997295;28;20504;-75
2024/04/03 01:55:10;;;;;;;4.63;1.13;;;8.30;99.90;;;;;;4999056;28;20026;-76
2024/04/03 01:57:36;;;;;;;6.95;1.60;;;8.40;99.90;;;;;;4997374;28;20050;-76
2024/04/03 02:00:02;;;;;;;4.63;1.55;;;8.40;99.90;;;;;;4998107;28;20466;-76
2024/04/03 02:02:27;;;;;;;4.25;1.38;;;8.40;99.90;;;;;;4998071;28;20084;-76
2024/04/03 02:04:53;;;;;;;8.10;2.03;;;8.30;99.90;;;;;;4994908;28;20801;-76
2024/04/03 02:07:19;;;;;;;5.72;1.60;;;8.30;99.90;;;;;;4997313;28;20473;-76
2024/04/03 02:09:44;;;;;;;4.63;1.73;;;8.30;99.90;;;;;;4997735;28;20045;-76
2024/04/03 02:12:10;;;;;;;4.20;1.58;;;8.20;99.90;;;;;;4997144;28;20109;-76
2024/04/03 02:14:36;;;;;;;5.43;1.73;;;8.10;99.90;;;;;;4998549;28;20095;-76
2024/04/03 02:17:02;;;;;;;3.90;1.40;;;8.20;99.90;;;;;;4997131;28;20033;-76
2024/04/03 02:19:27;;;;;;;5.03;1.98;;;8.20;99.90;;;;;;4997821;28;20091;-76
2024/04/03 02:21:53;;;;;;;5.15;1.80;;;8.20;99.90;;;;;;4996888;28;20132;-76
2024/04/03 02:24:19;;;;;;;4.95;1.90;;;8.50;99.90;;;;;;4997733;28;20030;-76
2024/04/03 02:26:44;;;;;;;4.35;1.50;;;8.50;99.90;;;;;;4996150;28;20384;-76
2024/04/03 02:29:14;;;;;;;3.40;1.40;;;8.50;99.90;;;;;;4997795;28;20088;-75
2024/04/03 02:31:40;;;;;;;5.13;1.80;;;8.20;99.90;;;;;;4998540;28;20034;-76
2024/04/03 02:34:06;;;;;;;3.63;1.33;;;8.20;99.90;;;;;;4996832;28;20068;-75
2024/04/03 02:36:32;;;;;;;4.90;1.63;;;8.10;99.90;;;;;;4998493;28;20025;-75
2024/04/03 02:38:58;;;;;;;2.42;1.30;;;8.20;99.90;;;;;;4996339;28;20030;-76
2024/04/03 02:41:23;;;;;;;6.18;1.88;;;8.30;99.90;;;;;;4997703;28;20046;-76
2024/04/03 02:43:49;;;;;;;4.65;1.55;;;8.40;99.90;;;;;;4996533;28;20041;-76
2024/04/03 02:46:15;;;;;;;4.32;1.73;;;8.40;99.90;;;;;;4996407;28;20084;-76
2024/04/03 02:48:40;;;;;;;3.55;1.60;;;8.40;99.90;;;;;;4998103;28;20033;-75
2024/04/03 02:51:09;;;;;;;3.40;1.30;;;8.50;99.90;;;;;;4997200;28;20510;-76
2024/04/03 02:53:35;;;;;;;5.80;2.28;;;8.60;99.90;;;;;;4996601;28;20030;-76
2024/04/03 02:56:05;;;;;;;5.50;2.03;;;8.50;99.90;;;;;;4997994;28;20544;-75
2024/04/03 02:58:30;;;;;;;3.03;1.23;;;8.50;99.90;;;;;;4995667;28;20068;-75
2024/04/03 03:01:03;;;;;;;7.35;1.98;;;8.50;99.90;;;;;;4996336;28;20038;-74
2024/04/03 03:03:30;;;;;;;5.72;2.13;;;8.40;99.90;;;;;;4992939;28;20034;-74
2024/04/03 03:06:00;;;;;;;4.78;1.70;;;8.50;99.90;;;;;;4992096;28;20068;-75
2024/04/03 03:08:28;;;;;;;8.10;1.88;;;8.50;99.90;;;;;;4990825;28;20045;-74
2024/04/03 03:10:54;;;;;;;5.55;1.70;;;8.60;99.90;;;;;;4990733;28;20034;-75
2024/04/03 03:13:20;;;;;;;4.10;1.80;;;8.50;99.90;;;;;;4992906;28;20064;-74
2024/04/03 03:15:59;;;;;;;3.17;1.23;;;8.40;99.90;;;;;;4992693;28;20575;-74
2024/04/03 03:18:27;;;;;;;3.38;1.30;;;8.30;99.90;;;;;;4988839;28;20045;-74
2024/04/03 03:20:53;;;;;;;3.58;1.50;;;8.30;99.90;;;;;;4990135;28;20045;-74
2024/04/03 03:23:19;;;;;;;4.93;1.60;;;8.30;99.90;;;;;;4992132;28;20137;-74
2024/04/03 03:25:47;;;;;;;3.65;1.20;;;8.30;99.90;;;;;;4993220;28;20625;-75
2024/04/03 03:28:13;;;;;;;4.38;1.20;;;8.30;99.90;;;;;;4991974;28;20048;-74
2024/04/03 03:30:39;;;;;;;5.40;1.05;;;8.40;99.90;;;;;;4994301;28;20088;-74
2024/04/03 03:33:05;;;;;;;4.72;1.38;;;8.50;99.90;;;;;;4992692;28;20038;-75
2024/04/03 03:35:31;;;;;;;3.08;1.48;;;8.50;99.90;;;;;;4992006;28;21297;-75
2024/04/03 03:37:57;;;;;;;2.78;1.33;;;8.40;99.90;;;;;;4993357;28;20581;-74
2024/04/03 03:40:23;;;;;;;5.85;1.27;;;8.40;99.90;;;;;;4991052;28;20646;-74
2024/04/03 03:42:49;;;;;;;2.08;0.90;;;8.50;99.90;;;;;;4992881;28;20037;-74
2024/04/03 03:45:20;;;;;;;2.92;1.20;;;8.40;99.90;;;;;;4993479;28;20057;-75
2024/04/03 03:47:46;;;;;;;1.98;0.90;;;8.30;99.90;;;;;;4993176;28;20074;-74
2024/04/03 03:52:56;;;;;;;2.30;1.25;;;8.10;99.90;;;;;;4992547;28;20044;-75
2024/04/03 03:55:25;;;;;;;4.35;1.70;;;8.10;99.90;;;;;;4991346;28;20038;-74
2024/04/03 03:57:51;;;;;;;4.63;1.30;;;7.90;99.90;;;;;;4990983;28;20034;-75
2024/04/03 04:00:17;;;;;;;3.85;1.50;;;7.90;99.90;;;;;;4987690;28;20042;-74
2024/04/03 04:02:42;;;;;;;2.72;1.30;;;7.80;99.90;;;;;;4989062;28;20040;-75
2024/04/03 04:05:08;;;;;;;4.15;1.67;;;7.90;99.90;;;;;;4988397;28;20494;-74
2024/04/03 04:07:34;;;;;;;4.70;1.02;;;8.00;99.90;;;;;;4987822;28;20037;-74
2024/04/03 04:09:59;;;;;;;2.05;0.98;;;8.10;99.90;;;;;;4986662;28;20045;-75
2024/04/03 04:12:25;;;;;;;3.05;1.25;;;8.10;99.90;;;;;;4989146;28;20041;-75
2024/04/03 04:14:52;;;;;;;4.20;1.35;;;8.00;99.90;;;;;;4987418;28;20451;-76
2024/04/03 04:17:19;;;;;;;3.00;1.30;;;8.10;99.90;;;;;;4989987;28;20041;-75
2024/04/03 04:19:46;;;;;;;3.20;1.13;;;8.10;99.90;;;;;;4988982;28;20040;-76
2024/04/03 04:22:12;;;;;;;3.75;1.30;;;8.20;99.90;;;;;;4986713;28;20081;-75
2024/04/03 04:24:38;;;;;;;2.72;1.20;;;8.10;99.90;;;;;;4989144;28;20132;-76
2024/04/03 04:27:08;;;;;;;3.15;0.90;;;7.80;99.90;;;;;;4989181;28;20048;-76
2024/04/03 04:29:40;;;;;;;2.97;1.10;;;7.70;99.90;;;;;;4988413;28;20674;-75
2024/04/03 04:32:10;;;;;;;2.60;0.95;;;7.80;99.90;;;;;;4989035;28;20543;-75
2024/04/03 04:34:39;;;;;;;6.32;1.10;;;8.00;99.90;;;;;;4987246;28;20117;-75
2024/04/03 04:37:05;;;;;;;3.92;1.10;;;8.00;99.90;;;;;;4988748;28;20042;-75
2024/04/03 04:39:31;;;;;;;3.30;1.10;;;8.00;99.90;;;;;;4988714;28;20033;-76
2024/04/03 04:41:57;;;;;;;5.57;1.33;;;8.00;99.90;;;;;;4988803;28;20621;-76
2024/04/03 04:44:23;;;;;;;3.95;1.42;;;8.00;99.90;;;;;;4987799;28;20084;-76
2024/04/03 04:46:50;;;;;;;3.40;1.38;;;8.10;99.90;;;;;;4989081;28;20088;-76
2024/04/03 04:49:16;;;;;;;3.83;1.15;;;8.10;99.90;;;;;;4988813;28;20088;-76
2024/04/03 04:51:43;;;;;;;2.80;1.27;;;8.10;99.90;;;;;;4988980;28;20038;-76
2024/04/03 04:54:09;;;;;;;5.40;1.50;;;8.20;99.90;;;;;;4989407;28;20465;-76
2024/04/03 04:56:35;;;;;;;5.55;1.40;;;8.00;99.90;;;;;;4989482;28;20093;-75
2024/04/03 04:59:00;;;;;;;2.63;1.10;;;8.00;99.90;;;;;;4987768;28;20452;-76
2024/04/03 05:01:26;;;;;;;3.92;1.10;;;8.10;99.90;;;;;;4989282;28;20476;-76
2024/04/03 05:03:52;;;;;;;2.33;1.10;;;8.20;99.90;;;;;;4987844;28;20132;-75
2024/04/03 05:06:18;;;;;;;3.13;1.50;;;8.10;99.90;;;;;;4988170;28;20029;-76
2024/04/03 05:08:45;;;;;;;4.57;1.10;;;8.20;99.90;;;;;;4989201;28;20037;-75
2024/04/03 05:11:11;;;;;;;4.25;2.10;;;8.20;99.90;;;;;;4988996;28;20032;-76
2024/04/03 05:13:37;;;;;;;34.83;21.05;;;8.10;99.90;;;;;;4987574;28;20096;-76
2024/04/03 05:16:14;;;;;;;13.88;8.60;;;8.20;99.90;;;;;;4990213;28;20042;-76
2024/04/03 05:18:44;;;;;;;8.60;4.32;;;8.30;99.90;;;;;;4998069;28;20061;-76
2024/04/03 05:21:09;;;;;;;5.93;3.30;;;8.30;99.90;;;;;;4992177;28;20041;-77
2024/04/03 05:23:35;;;;;;;4.38;2.60;;;8.30;99.90;;;;;;4990436;28;20030;-77
2024/04/03 05:26:04;;;;;;;6.00;1.80;;;8.20;99.90;;;;;;4991376;28;20136;-77
2024/04/03 05:28:30;;;;;;;5.50;1.77;;;8.30;99.90;;;;;;4992976;28;20038;-77
2024/04/03 05:31:07;;;;;;;5.60;1.13;;;8.20;99.90;;;;;;4992005;28;20099;-77
2024/04/03 05:33:33;;;;;;;3.60;1.00;;;8.30;99.90;;;;;;4991622;28;20030;-77
2024/04/03 05:36:04;;;;;;;4.03;1.13;;;8.20;99.90;;;;;;4992411;28;20065;-77
2024/04/03 05:38:30;;;;;;;1.75;0.98;;;8.10;99.90;;;;;;4990893;28;20045;-77
2024/04/03 05:40:56;;;;;;;5.93;1.13;;;8.10;99.90;;;;;;4992219;28;20038;-77
2024/04/03 05:43:23;;;;;;;3.78;1.17;;;8.10;99.90;;;;;;4991492;28;20037;-77
2024/04/03 05:45:53;;;;;;;2.92;1.08;;;8.10;99.90;;;;;;4991779;28;20061;-77
2024/04/03 05:48:21;;;;;;;2.08;0.90;;;8.20;99.90;;;;;;4992688;28;20128;-77
2024/04/03 05:50:47;;;;;;;2.72;0.80;;;8.30;99.90;;;;;;4991371;28;20052;-77
2024/04/03 05:53:12;;;;;;;1.85;0.85;;;8.30;99.90;;;;;;4992644;28;20094;-77
2024/04/03 05:55:38;;;;;;;1.63;0.80;;;8.40;99.90;;;;;;4991213;28;20025;-79
2024/04/03 05:58:04;;;;;;;3.67;1.05;;;8.50;99.90;;;;;;4999030;28;20493;-77
2024/04/03 06:00:30;;;;;;;1.92;0.90;;;8.50;99.90;;;;;;4996356;28;20477;-77
2024/04/03 06:02:56;;;;;;;5.65;1.35;;;8.50;99.90;;;;;;4993568;28;20040;-77
2024/04/03 06:05:22;;;;;;;2.70;1.00;;;8.40;99.90;;;;;;4992245;28;20121;-76
2024/04/03 06:07:49;;;;;;;6.32;1.08;;;8.50;99.90;;;;;;4992192;28;20376;-76
2024/04/03 06:10:16;;;;;;;1.60;0.88;;;8.60;99.90;;;;;;4989412;28;20830;-76
2024/04/03 06:12:42;;;;;;;2.15;0.93;;;8.60;99.90;;;;;;4990475;28;20083;-76
2024/04/03 06:15:08;;;;;;;2.78;0.90;;;8.70;99.90;;;;;;4991231;28;20227;-76
2024/04/03 06:17:34;;;;;;;1.90;0.60;;;8.70;99.90;;;;;;4991040;28;20923;-76
2024/04/03 06:20:00;;;;;;;2.05;0.75;;;8.70;99.90;;;;;;4990297;28;20041;-76
2024/04/03 06:22:25;;;;;;;1.73;0.80;;;8.80;99.90;;;;;;4991011;28;20956;-76
2024/04/03 06:24:51;;;;;;;1.70;0.80;;;8.80;99.90;;;;;;4989347;28;20030;-76
2024/04/03 06:27:17;;;;;;;2.65;1.13;;;8.80;99.90;;;;;;4990926;28;20112;-76
2024/04/03 06:29:42;;;;;;;2.45;1.00;;;8.90;99.90;;;;;;4990719;28;20037;-76
2024/04/03 06:32:08;;;;;;;1.83;0.80;;;8.80;99.90;;;;;;4990392;28;20053;-76
2024/04/03 06:34:34;;;;;;;1.88;0.88;;;8.80;99.90;;;;;;4991279;28;20644;-76
2024/04/03 06:37:00;;;;;;;3.60;1.23;;;8.90;99.90;;;;;;4991439;28;20029;-76
2024/04/03 06:39:26;;;;;;;2.95;1.15;;;8.90;99.90;;;;;;4987127;28;20095;-76
2024/04/03 06:41:51;;;;;;;4.85;1.73;;;8.80;99.90;;;;;;4991340;28;20049;-76
2024/04/03 06:44:18;;;;;;;4.85;1.67;;;8.60;99.90;;;;;;4989424;28;20044;-76
2024/04/03 06:46:43;;;;;;;5.60;1.40;;;8.60;99.90;;;;;;4989123;28;20077;-76
2024/04/03 06:49:10;;;;;;;4.28;1.17;;;8.60;99.90;;;;;;4990756;28;20034;-76
2024/04/03 06:51:36;;;;;;;5.03;1.40;;;8.70;99.90;;;;;;4989957;28;20239;-76
2024/04/03 06:54:03;;;;;;;1.75;0.88;;;8.80;99.90;;;;;;4989835;28;20037;-78
2024/04/03 06:56:32;;;;;;;6.78;1.73;;;8.80;99.90;;;;;;4990851;28;20488;-78
2024/04/03 06:58:58;;;;;;;4.38;1.40;;;8.90;99.90;;;;;;4988516;28;20030;-77
2024/04/03 07:01:24;;;;;;;5.97;2.22;;;8.90;99.90;;;;;;4989009;28;20506;-77
2024/04/03 07:03:51;;;;;;;5.20;1.58;;;8.70;99.90;;;;;;4990957;28;20029;-78
2024/04/03 07:06:21;;;;;;;3.67;1.77;;;8.70;99.90;;;;;;4989681;28;20037;-78
2024/04/03 07:08:47;;;;;;;4.95;1.85;;;8.70;99.90;;;;;;4989484;28;20041;-78
2024/04/03 07:11:15;;;;;;;3.63;1.60;;;8.60;99.90;;;;;;4988937;28;20038;-78
2024/04/03 07:13:40;;;;;;;5.10;1.77;;;8.70;99.90;;;;;;4989741;28;20061;-79
2024/04/03 07:16:06;;;;;;;7.05;2.08;;;8.70;99.90;;;;;;4976947;28;20562;-77
2024/04/03 07:18:32;;;;;;;3.50;1.48;;;8.80;99.90;;;;;;4989618;28;20124;-78
2024/04/03 07:20:59;;;;;;;8.65;1.30;;;8.90;99.90;;;;;;4990528;28;20128;-79
2024/04/03 07:23:27;;;;;;;3.63;1.45;;;8.90;99.90;;;;;;4989134;28;20033;-79
2024/04/03 07:25:54;;;;;;;5.22;1.48;;;8.70;99.90;;;;;;4989022;28;20049;-81
2024/04/03 07:28:19;;;;;;;1.95;1.05;;;8.90;99.90;;;;;;4991257;28;20041;-79
2024/04/03 07:30:45;;;;;;;4.85;1.35;;;9.00;99.90;;;;;;4989047;28;20945;-79
2024/04/03 07:33:11;;;;;;;2.55;1.30;;;9.00;99.90;;;;;;4989410;28;20108;-78
2024/04/03 07:35:38;;;;;;;6.93;2.38;;;9.10;99.90;;;;;;4989449;28;20038;-77
2024/04/03 07:38:04;;;;;;;5.43;1.50;;;9.10;99.90;;;;;;4989341;28;20717;-79
2024/04/03 07:40:30;;;;;;;4.80;2.78;;;9.10;99.90;;;;;;4988372;28;20052;-79
2024/04/03 07:42:56;;;;;;;5.80;3.40;;;9.10;99.90;;;;;;4989979;28;20751;-79
2024/04/03 07:45:22;;;;;;;4.25;2.28;;;9.10;99.90;;;;;;4989758;28;20057;-79
2024/04/03 07:47:48;;;;;;;3.70;1.63;;;9.10;99.90;;;;;;4989119;28;20095;-79
2024/04/03 07:50:15;;;;;;;5.05;1.73;;;8.90;99.90;;;;;;4990943;28;20048;-79
2024/04/03 07:52:41;;;;;;;3.10;1.63;;;8.90;99.90;;;;;;4990225;28;20034;-79
2024/04/03 07:55:11;;;;;;;5.78;1.60;;;8.80;99.90;;;;;;4990435;28;20042;-79
2024/04/03 07:57:38;;;;;;;4.35;1.80;;;8.80;99.90;;;;;;4989741;28;20091;-79
2024/04/03 08:00:05;;;;;;;3.15;1.52;;;8.90;99.90;;;;;;4989724;28;20183;-80
2024/04/03 08:02:36;;;;;;;6.97;2.03;;;9.00;99.90;;;;;;4989786;28;20144;-79
2024/04/03 08:05:02;;;;;;;4.80;2.38;;;8.90;99.90;;;;;;4991297;28;20034;-79
2024/04/03 08:07:28;;;;;;;6.28;2.42;;;8.80;99.90;;;;;;4991258;28;20034;-79
2024/04/03 08:09:54;;;;;;;5.65;2.88;;;8.80;99.90;;;;;;4990175;28;20034;-78
2024/04/03 08:12:20;;;;;;;5.13;2.00;;;8.80;99.90;;;;;;4988774;28;20399;-80
2024/04/03 08:14:46;;;;;;;4.80;2.50;;;8.80;99.90;;;;;;4991322;28;20596;-80
2024/04/03 08:17:12;;;;;;;6.93;2.60;;;8.80;99.90;;;;;;4991224;28;20042;-80
2024/04/03 08:19:37;;;;;;;5.63;2.72;;;8.70;99.90;;;;;;4992322;28;20041;-79
2024/04/03 08:22:04;;;;;;;5.63;2.75;;;8.80;99.90;;;;;;4991182;28;20038;-80
2024/04/03 08:24:32;;;;;;;7.78;2.22;;;8.80;99.90;;;;;;4990283;28;20034;-79
2024/04/03 08:26:57;;;;;;;4.45;2.05;;;8.80;99.90;;;;;;4989394;28;20109;-80
2024/04/03 08:29:24;;;;;;;5.07;2.10;;;8.80;99.90;;;;;;4989299;28;20037;-80
2024/04/03 08:31:51;;;;;;;4.82;2.40;;;8.80;99.90;;;;;;4989836;28;20468;-81
2024/04/03 08:34:17;;;;;;;9.98;2.25;;;8.70;99.90;;;;;;4990353;28;20115;-81
2024/04/03 08:36:42;;;;;;;7.03;2.00;;;8.80;99.90;;;;;;4989778;28;20473;-80
2024/04/03 08:39:08;;;;;;;4.05;1.63;;;8.70;99.90;;;;;;4989530;28;20033;-79
2024/04/03 08:41:34;;;;;;;4.15;2.10;;;8.70;99.90;;;;;;4991386;28;20564;-81
2024/04/03 08:44:00;;;;;;;4.95;2.40;;;8.90;99.90;;;;;;4989782;28;20037;-83
2024/04/03 08:46:29;;;;;;;6.50;2.00;;;9.00;99.90;;;;;;4989833;28;20053;-81
2024/04/03 08:48:56;;;;;;;5.25;2.17;;;9.10;99.90;;;;;;4990175;28;20041;-82
2024/04/03 08:51:27;;;;;;;5.63;2.40;;;9.30;99.90;;;;;;4992481;28;20942;-81
2024/04/03 08:54:05;;;;;;;5.32;2.13;;;9.40;99.90;;;;;;4992695;28;20258;-81
2024/04/03 08:56:31;;;;;;;2.78;1.40;;;9.50;99.90;;;;;;4992961;28;20388;-81
2024/04/03 08:58:59;;;;;;;4.05;1.60;;;9.30;99.90;;;;;;4994878;28;20045;-81
2024/04/03 09:01:25;;;;;;;3.75;1.50;;;9.40;99.90;;;;;;4993372;28;20046;-82
2024/04/03 09:03:51;;;;;;;3.80;1.50;;;9.30;99.90;;;;;;4993936;28;20561;-82
2024/04/03 09:06:16;;;;;;;4.90;1.52;;;9.20;99.90;;;;;;4995130;28;20049;-80
2024/04/03 09:08:43;;;;;;;5.25;1.35;;;9.20;99.90;;;;;;4992116;28;20531;-80
2024/04/03 09:11:10;;;;;;;4.88;1.65;;;9.30;99.90;;;;;;4992686;28;20054;-81
2024/04/03 09:13:36;;;;;;;7.03;2.05;;;9.40;99.90;;;;;;4994694;28;20030;-80
2024/04/03 09:16:02;;;;;;;4.03;1.80;;;9.60;99.90;;;;;;4993299;28;20092;-80
2024/04/03 09:18:29;;;;;;;5.38;1.13;;;9.80;99.90;;;;;;4992874;28;20091;-80
2024/04/03 09:20:55;;;;;;;2.72;1.40;;;9.70;99.90;;;;;;4992857;28;20451;-80
2024/04/03 09:23:21;;;;;;;2.63;1.05;;;9.90;99.90;;;;;;4992851;28;20034;-80
2024/04/03 09:25:48;;;;;;;3.60;1.00;;;9.80;99.90;;;;;;4992573;28;20055;-81
2024/04/03 09:28:14;;;;;;;3.60;1.00;;;9.90;99.90;;;;;;4992992;28;20030;-81
2024/04/03 09:30:49;;;;;;;3.17;1.48;;;9.90;99.90;;;;;;4991456;28;20688;-81
2024/04/03 09:33:16;;;;;;;3.45;1.60;;;9.80;99.90;;;;;;4991144;28;20033;-81
2024/04/03 09:35:43;;;;;;;3.45;1.40;;;9.70;99.90;;;;;;4992440;28;20075;-80
2024/04/03 09:38:14;;;;;;;3.78;1.70;;;9.70;99.90;;;;;;4993282;28;20117;-80
2024/04/03 09:40:41;;;;;;;4.00;1.30;;;9.70;99.90;;;;;;4992861;28;20095;-80
2024/04/03 09:43:12;;;;;;;5.40;1.85;;;9.60;99.90;;;;;;4992352;28;20037;-79
2024/04/03 09:45:38;;;;;;;8.70;2.15;;;9.60;99.90;;;;;;4993215;28;20050;-79
2024/04/03 09:48:06;;;;;;;3.97;1.60;;;9.70;99.90;;;;;;4991507;28;20041;-79
2024/04/03 09:50:35;;;;;;;4.15;1.48;;;9.80;99.90;;;;;;4991904;28;20042;-78
2024/04/03 09:53:03;;;;;;;3.20;1.52;;;9.90;99.90;;;;;;4992403;28;20030;-80
2024/04/03 09:55:29;;;;;;;3.53;1.60;;;10.00;99.90;;;;;;4992737;28;20033;-80
2024/04/03 09:57:59;;;;;;;4.25;1.20;;;10.20;99.90;;;;;;4992759;28;20037;-81
2024/04/03 10:00:24;;;;;;;7.07;1.52;;;10.50;99.90;;;;;;4992498;28;20622;-82
2024/04/03 10:02:50;;;;;;;3.15;1.30;;;10.70;99.90;;;;;;4992019;28;20036;-81
2024/04/03 10:05:21;;;;;;;3.88;1.15;;;10.90;99.90;;;;;;4990770;28;20045;-81
2024/04/03 10:08:02;;;;;;;3.72;1.50;;;11.00;99.90;;;;;;4992935;28;20034;-82
2024/04/03 10:10:29;;;;;;;2.65;1.83;;;10.70;99.90;;;;;;4991241;28;20038;-82
2024/04/03 10:13:00;;;;;;;11.27;6.30;;;10.60;99.90;;;;;;4991116;28;20593;-82
2024/04/03 10:15:27;;;;;;;7.05;4.00;;;10.50;99.90;;;;;;4990514;28;20030;-81
2024/04/03 10:17:53;;;;;;;6.18;2.40;;;10.60;99.90;;;;;;4992681;28;20114;-83
2024/04/03 10:20:29;;;;;;;3.65;1.70;;;10.80;99.90;;;;;;4992033;28;20046;-81
2024/04/03 10:22:55;;;;;;;4.88;1.67;;;11.20;99.90;;;;;;4991328;28;20025;-81
2024/04/03 10:25:21;;;;;;;4.60;1.52;;;11.40;99.90;;;;;;4991512;28;20064;-81
2024/04/03 10:27:46;;;;;;;4.30;1.70;;;11.50;99.90;;;;;;4992802;28;20116;-80
2024/04/03 10:30:18;;;;;;;4.00;1.50;;;11.50;99.90;;;;;;4990087;28;20618;-81
2024/04/03 10:32:45;;;;;;;4.22;1.98;;;11.60;99.90;;;;;;4990712;28;20033;-80
2024/04/03 10:35:11;;;;;;;6.43;1.85;;;11.40;99.90;;;;;;4990020;28;20559;-81
2024/04/03 10:37:36;;;;;;;6.80;1.90;;;11.30;99.90;;;;;;4988714;28;20049;-80
2024/04/03 10:40:03;;;;;;;5.15;2.30;;;11.20;99.90;;;;;;4991417;28;20118;-80
2024/04/03 10:42:30;;;;;;;3.75;2.13;;;11.20;99.90;;;;;;4989600;28;20155;-80
2024/04/03 10:44:56;;;;;;;4.60;1.77;;;11.10;99.90;;;;;;4987378;28;20572;-80
2024/04/03 10:47:21;;;;;;;6.15;2.33;;;11.30;99.90;;;;;;4990512;28;20042;-80
2024/04/03 10:49:47;;;;;;;3.60;1.33;;;11.20;99.90;;;;;;4991789;28;20419;-80
2024/04/03 10:52:14;;;;;;;4.22;1.45;;;11.20;99.90;;;;;;4991280;28;20018;-81
2024/04/03 10:54:40;;;;;;;5.32;2.10;;;11.00;99.90;;;;;;4992132;28;20034;-81
2024/04/03 10:57:05;;;;;;;12.25;5.53;;;11.00;99.90;;;;;;4990550;28;20068;-80
2024/04/03 10:59:31;;;;;;;5.88;4.15;;;11.20;99.90;;;;;;4990423;28;20550;-81
2024/04/03 11:01:57;;;;;;;6.22;3.47;;;11.40;99.90;;;;;;4991221;28;20802;-81
2024/04/03 11:04:26;;;;;;;4.40;2.22;;;11.50;99.90;;;;;;4991079;28;20049;-78
2024/04/03 11:06:52;;;;;;;6.25;1.90;;;11.60;99.90;;;;;;4994174;28;20038;-79
2024/04/03 11:09:18;;;;;;;5.32;2.22;;;11.90;99.90;;;;;;4992420;28;20045;-79
2024/04/03 11:11:46;;;;;;;5.28;2.85;;;12.00;99.90;;;;;;4992843;28;20042;-79
2024/04/03 11:14:25;;;;;;;5.97;2.40;;;12.00;99.90;;;;;;4994049;28;20376;-78
2024/04/03 11:16:55;;;;;;;6.50;1.85;;;11.70;99.90;;;;;;4993490;28;20045;-79
2024/04/03 11:19:21;;;;;;;5.78;1.38;;;11.60;99.90;;;;;;4992855;28;20037;-79
2024/04/03 11:21:47;;;;;;;4.60;2.72;;;11.50;99.90;;;;;;4993799;28;20687;-79
2024/04/03 11:24:12;;;;;;;6.47;2.88;;;11.30;99.90;;;;;;4992858;28;20064;-77
2024/04/03 11:26:42;;;;;;;5.38;2.28;;;11.40;99.90;;;;;;4992247;28;20141;-77
2024/04/03 11:29:31;;;;;;;6.05;2.55;;;11.50;99.90;;;;;;4993065;28;20038;-79
2024/04/03 11:31:58;;;;;;;4.20;1.52;;;11.50;99.90;;;;;;4992394;28;20069;-80
2024/04/03 11:34:27;;;;;;;6.25;2.03;;;11.50;99.90;;;;;;4992817;28;20033;-80
2024/04/03 11:36:54;;;;;;;5.05;2.15;;;11.40;99.90;;;;;;4991584;28;20049;-81
2024/04/03 11:39:30;;;;;;;4.05;1.70;;;11.50;99.90;;;;;;4991759;28;20665;-79
2024/04/03 11:42:01;;;;;;;6.13;2.13;;;11.90;99.90;;;;;;4991921;28;20046;-78
2024/04/03 11:44:27;;;;;;;3.50;2.00;;;11.90;99.90;;;;;;4990480;28;20030;-78
2024/04/03 11:46:53;;;;;;;3.90;1.92;;;11.90;99.90;;;;;;4991711;28;20073;-78
2024/04/03 11:49:18;;;;;;;8.63;4.32;;;11.90;99.90;;;;;;4991630;28;20041;-78
2024/04/03 11:51:46;;;;;;;40.03;19.73;;;12.10;99.90;;;;;;4990786;28;20029;-79
2024/04/03 11:54:13;;;;;;;101.07;54.63;;;12.20;99.90;;;;;;4987576;28;20038;-79
2024/04/03 11:56:39;;;;;;;21.98;14.13;;;12.20;99.90;;;;;;4989223;28;20050;-80
2024/04/03 11:59:06;;;;;;;13.57;7.43;;;12.20;99.90;;;;;;4990524;28;20502;-80
2024/04/03 12:01:33;;;;;;;13.32;6.93;;;12.10;99.90;;;;;;4989197;28;20076;-79
2024/04/03 12:03:58;;;;;;;81.57;44.63;;;12.10;99.90;;;;;;4988681;28;20487;-80
2024/04/03 12:06:24;;;;;;;315.00;152.68;;;12.20;99.90;;;;;;4988323;28;20045;-80
2024/04/03 12:08:50;;;;;;;142.90;76.72;;;12.30;99.90;;;;;;4988003;28;20029;-80
2024/04/03 12:11:17;;;;;;;106.68;52.20;;;12.50;99.90;;;;;;4987538;28;20108;-79
2024/04/03 12:13:43;;;;;;;76.45;37.85;;;12.70;99.90;;;;;;4989392;28;20113;-79
2024/04/03 12:16:13;;;;;;;33.13;18.77;;;12.30;99.90;;;;;;4988105;28;20040;-79
2024/04/03 12:18:49;;;;;;;26.02;12.02;;;12.60;99.90;;;;;;4987701;28;20135;-79
2024/04/03 12:21:19;;;;;;;57.40;25.17;;;12.60;99.90;;;;;;4987416;28;20034;-79
2024/04/03 12:23:48;;;;;;;25.17;11.52;;;12.70;99.90;;;;;;4989179;28;20073;-79
2024/04/03 12:26:13;;;;;;;68.70;26.20;;;12.60;99.90;;;;;;4988885;28;20038;-80
2024/04/03 12:28:40;;;;;;;32.35;14.65;;;12.50;99.90;;;;;;4987432;28;20610;-81
2024/04/03 12:31:06;;;;;;;16.52;8.02;;;12.60;99.90;;;;;;4988189;28;20037;-80
2024/04/03 12:33:32;;;;;;;26.50;10.68;;;12.80;99.90;;;;;;4988405;28;20033;-80
2024/04/03 12:35:57;;;;;;;44.70;17.27;;;13.00;99.90;;;;;;4987838;28;20413;-80
2024/04/03 12:38:23;;;;;;;168.15;73.50;;;13.20;99.90;;;;;;4988199;28;20042;-79
2024/04/03 12:40:49;;;;;;;102.72;48.15;;;13.20;99.90;;;;;;4989266;28;20431;-79
2024/04/03 12:43:15;;;;;;;39.90;20.23;;;13.40;99.90;;;;;;4986676;28;20075;-78
2024/04/03 12:45:40;;;;;;;19.65;9.10;;;13.40;99.90;;;;;;4988437;28;20065;-79
2024/04/03 12:48:07;;;;;;;10.93;4.15;;;13.50;99.90;;;;;;4989006;28;20346;-80
2024/04/03 12:50:33;;;;;;;38.75;24.13;;;13.60;99.90;;;;;;4987431;28;20527;-80
2024/04/03 12:52:59;;;;;;;19.83;12.90;;;13.50;99.90;;;;;;4987962;28;20751;-79